sensor_id;sensor_type;location;lat;lon;timestamp;P1;durP1;ratioP1;P2;durP2;ratioP2
54454;SDS011;40364;52.270;10.546;2023-11-19T00:00:54;2.30;;;1.00;;
54454;SDS011;40364;52.270;10.546;2023-11-19T00:03:21;1.35;;;0.98;;
54454;SDS011;40364;52.270;10.546;2023-11-19T00:05:48;3.95;;;1.00;;
54454;SDS011;40364;52.270;10.546;2023-11-19T00:08:17;1.17;;;0.85;;
54454;SDS011;40364;52.270;10.546;2023-11-19T00:10:44;2.22;;;0.60;;
54454;SDS011;40364;52.270;10.546;2023-11-19T00:13:11;1.33;;;1.00;;
54454;SDS011;40364;52.270;10.546;2023-11-19T00:15:38;1.25;;;0.77;;
54454;SDS011;40364;52.270;10.546;2023-11-19T00:18:08;2.03;;;1.20;;
54454;SDS011;40364;52.270;10.546;2023-11-19T00:20:35;1.60;;;0.80;;
54454;SDS011;40364;52.270;10.546;2023-11-19T00:23:02;1.95;;;1.02;;
54454;SDS011;40364;52.270;10.546;2023-11-19T00:25:31;2.72;;;1.10;;
54454;SDS011;40364;52.270;10.546;2023-11-19T00:27:58;1.23;;;0.70;;
54454;SDS011;40364;52.270;10.546;2023-11-19T00:30:25;2.17;;;1.05;;
54454;SDS011;40364;52.270;10.546;2023-11-19T00:32:56;2.20;;;1.10;;
54454;SDS011;40364;52.270;10.546;2023-11-19T00:35:23;3.30;;;0.90;;
54454;SDS011;40364;52.270;10.546;2023-11-19T00:37:50;5.35;;;1.60;;
54454;SDS011;40364;52.270;10.546;2023-11-19T00:40:18;4.40;;;1.40;;
54454;SDS011;40364;52.270;10.546;2023-11-19T00:42:49;3.00;;;1.17;;
54454;SDS011;40364;52.270;10.546;2023-11-19T00:45:16;4.88;;;1.15;;
54454;SDS011;40364;52.270;10.546;2023-11-19T00:47:47;1.88;;;0.70;;
54454;SDS011;40364;52.270;10.546;2023-11-19T00:50:14;1.20;;;0.52;;
54454;SDS011;40364;52.270;10.546;2023-11-19T00:52:41;3.13;;;0.90;;
54454;SDS011;40364;52.270;10.546;2023-11-19T00:55:07;2.83;;;0.70;;
54454;SDS011;40364;52.270;10.546;2023-11-19T00:57:42;5.05;;;1.83;;
54454;SDS011;40364;52.270;10.546;2023-11-19T01:00:17;1.88;;;1.15;;
54454;SDS011;40364;52.270;10.546;2023-11-19T01:02:49;0.60;;;0.60;;
54454;SDS011;40364;52.270;10.546;2023-11-19T01:05:19;0.55;;;0.40;;
54454;SDS011;40364;52.270;10.546;2023-11-19T01:07:47;1.00;;;0.50;;
54454;SDS011;40364;52.270;10.546;2023-11-19T01:10:15;1.02;;;0.30;;
54454;SDS011;40364;52.270;10.546;2023-11-19T01:12:41;0.70;;;0.70;;
54454;SDS011;40364;52.270;10.546;2023-11-19T01:15:08;0.70;;;0.40;;
54454;SDS011;40364;52.270;10.546;2023-11-19T01:17:37;0.60;;;0.40;;
54454;SDS011;40364;52.270;10.546;2023-11-19T01:20:05;0.38;;;0.30;;
54454;SDS011;40364;52.270;10.546;2023-11-19T01:22:32;0.28;;;0.28;;
54454;SDS011;40364;52.270;10.546;2023-11-19T01:25:01;0.50;;;0.50;;
54454;SDS011;40364;52.270;10.546;2023-11-19T01:27:30;0.30;;;0.30;;
54454;SDS011;40364;52.270;10.546;2023-11-19T01:29:59;0.45;;;0.40;;
54454;SDS011;40364;52.270;10.546;2023-11-19T01:32:27;0.52;;;0.43;;
54454;SDS011;40364;52.270;10.546;2023-11-19T01:34:55;1.55;;;0.40;;
54454;SDS011;40364;52.270;10.546;2023-11-19T01:37:21;0.50;;;0.50;;
54454;SDS011;40364;52.270;10.546;2023-11-19T01:39:48;0.80;;;0.30;;
54454;SDS011;40364;52.270;10.546;2023-11-19T01:42:15;0.73;;;0.40;;
54454;SDS011;40364;52.270;10.546;2023-11-19T01:44:41;0.47;;;0.40;;
54454;SDS011;40364;52.270;10.546;2023-11-19T01:47:08;0.75;;;0.40;;
54454;SDS011;40364;52.270;10.546;2023-11-19T01:49:35;0.47;;;0.47;;
54454;SDS011;40364;52.270;10.546;2023-11-19T01:52:04;0.57;;;0.40;;
54454;SDS011;40364;52.270;10.546;2023-11-19T01:54:33;1.95;;;0.50;;
54454;SDS011;40364;52.270;10.546;2023-11-19T01:57:00;0.93;;;0.40;;
54454;SDS011;40364;52.270;10.546;2023-11-19T01:59:27;0.30;;;0.30;;
54454;SDS011;40364;52.270;10.546;2023-11-19T02:01:57;0.50;;;0.38;;
54454;SDS011;40364;52.270;10.546;2023-11-19T02:04:24;0.73;;;0.40;;
54454;SDS011;40364;52.270;10.546;2023-11-19T02:06:54;0.55;;;0.38;;
54454;SDS011;40364;52.270;10.546;2023-11-19T02:09:25;0.35;;;0.30;;
54454;SDS011;40364;52.270;10.546;2023-11-19T02:11:52;0.45;;;0.38;;
54454;SDS011;40364;52.270;10.546;2023-11-19T02:14:20;0.70;;;0.45;;
54454;SDS011;40364;52.270;10.546;2023-11-19T02:16:56;0.55;;;0.47;;
54454;SDS011;40364;52.270;10.546;2023-11-19T02:19:24;0.60;;;0.40;;
54454;SDS011;40364;52.270;10.546;2023-11-19T02:21:55;0.55;;;0.40;;
54454;SDS011;40364;52.270;10.546;2023-11-19T02:24:22;0.63;;;0.63;;
54454;SDS011;40364;52.270;10.546;2023-11-19T02:26:55;0.43;;;0.43;;
54454;SDS011;40364;52.270;10.546;2023-11-19T02:29:30;0.55;;;0.50;;
54454;SDS011;40364;52.270;10.546;2023-11-19T02:31:57;0.52;;;0.50;;
54454;SDS011;40364;52.270;10.546;2023-11-19T02:34:24;0.93;;;0.52;;
54454;SDS011;40364;52.270;10.546;2023-11-19T02:36:50;2.05;;;0.82;;
54454;SDS011;40364;52.270;10.546;2023-11-19T02:39:21;6.07;;;1.10;;
54454;SDS011;40364;52.270;10.546;2023-11-19T02:41:48;3.80;;;1.50;;
54454;SDS011;40364;52.270;10.546;2023-11-19T02:44:18;4.25;;;1.65;;
54454;SDS011;40364;52.270;10.546;2023-11-19T02:46:46;11.00;;;2.00;;
54454;SDS011;40364;52.270;10.546;2023-11-19T02:49:15;4.28;;;2.08;;
54454;SDS011;40364;52.270;10.546;2023-11-19T02:51:43;3.78;;;1.70;;
54454;SDS011;40364;52.270;10.546;2023-11-19T02:54:10;2.30;;;0.98;;
54454;SDS011;40364;52.270;10.546;2023-11-19T02:56:42;2.40;;;1.38;;
54454;SDS011;40364;52.270;10.546;2023-11-19T02:59:20;3.83;;;1.52;;
54454;SDS011;40364;52.270;10.546;2023-11-19T03:01:53;2.83;;;1.40;;
54454;SDS011;40364;52.270;10.546;2023-11-19T03:04:20;4.35;;;1.77;;
54454;SDS011;40364;52.270;10.546;2023-11-19T03:06:48;5.38;;;2.10;;
54454;SDS011;40364;52.270;10.546;2023-11-19T03:09:15;5.97;;;1.65;;
54454;SDS011;40364;52.270;10.546;2023-11-19T03:11:41;3.42;;;1.40;;
54454;SDS011;40364;52.270;10.546;2023-11-19T03:14:08;3.05;;;1.90;;
54454;SDS011;40364;52.270;10.546;2023-11-19T03:16:34;3.78;;;1.60;;
54454;SDS011;40364;52.270;10.546;2023-11-19T03:19:02;9.00;;;2.00;;
54454;SDS011;40364;52.270;10.546;2023-11-19T03:21:29;5.90;;;1.60;;
54454;SDS011;40364;52.270;10.546;2023-11-19T03:23:56;4.40;;;1.90;;
54454;SDS011;40364;52.270;10.546;2023-11-19T03:26:25;4.13;;;1.30;;
54454;SDS011;40364;52.270;10.546;2023-11-19T03:28:52;3.00;;;1.88;;
54454;SDS011;40364;52.270;10.546;2023-11-19T03:31:19;8.50;;;1.77;;
54454;SDS011;40364;52.270;10.546;2023-11-19T03:33:46;3.05;;;1.40;;
54454;SDS011;40364;52.270;10.546;2023-11-19T03:36:14;2.80;;;1.50;;
54454;SDS011;40364;52.270;10.546;2023-11-19T03:38:40;4.30;;;1.98;;
54454;SDS011;40364;52.270;10.546;2023-11-19T03:41:10;2.45;;;1.45;;
54454;SDS011;40364;52.270;10.546;2023-11-19T03:43:37;4.40;;;1.38;;
54454;SDS011;40364;52.270;10.546;2023-11-19T03:46:04;2.20;;;1.30;;
54454;SDS011;40364;52.270;10.546;2023-11-19T03:48:31;1.65;;;0.88;;
54454;SDS011;40364;52.270;10.546;2023-11-19T03:50:58;2.38;;;1.00;;
54454;SDS011;40364;52.270;10.546;2023-11-19T03:53:26;2.05;;;1.15;;
54454;SDS011;40364;52.270;10.546;2023-11-19T03:55:52;0.60;;;0.60;;
54454;SDS011;40364;52.270;10.546;2023-11-19T03:58:19;0.90;;;0.70;;
54454;SDS011;40364;52.270;10.546;2023-11-19T04:00:46;1.40;;;0.90;;
54454;SDS011;40364;52.270;10.546;2023-11-19T04:03:12;1.33;;;0.80;;
54454;SDS011;40364;52.270;10.546;2023-11-19T04:05:39;1.05;;;0.80;;
54454;SDS011;40364;52.270;10.546;2023-11-19T04:08:05;1.27;;;1.10;;
54454;SDS011;40364;52.270;10.546;2023-11-19T04:10:34;0.98;;;0.75;;
54454;SDS011;40364;52.270;10.546;2023-11-19T04:13:00;2.63;;;0.90;;
54454;SDS011;40364;52.270;10.546;2023-11-19T04:15:27;0.65;;;0.60;;
54454;SDS011;40364;52.270;10.546;2023-11-19T04:17:54;0.95;;;0.77;;
54454;SDS011;40364;52.270;10.546;2023-11-19T04:20:20;0.77;;;0.60;;
54454;SDS011;40364;52.270;10.546;2023-11-19T04:22:47;0.80;;;0.65;;
54454;SDS011;40364;52.270;10.546;2023-11-19T04:25:16;0.95;;;0.82;;
54454;SDS011;40364;52.270;10.546;2023-11-19T04:27:45;1.23;;;0.77;;
54454;SDS011;40364;52.270;10.546;2023-11-19T04:30:13;1.60;;;0.75;;
54454;SDS011;40364;52.270;10.546;2023-11-19T04:32:40;0.70;;;0.70;;
54454;SDS011;40364;52.270;10.546;2023-11-19T04:35:07;0.65;;;0.65;;
54454;SDS011;40364;52.270;10.546;2023-11-19T04:37:34;0.95;;;0.70;;
54454;SDS011;40364;52.270;10.546;2023-11-19T04:40:01;2.55;;;0.82;;
54454;SDS011;40364;52.270;10.546;2023-11-19T04:42:28;1.40;;;0.90;;
54454;SDS011;40364;52.270;10.546;2023-11-19T04:44:56;1.73;;;1.02;;
54454;SDS011;40364;52.270;10.546;2023-11-19T04:47:23;2.58;;;1.17;;
54454;SDS011;40364;52.270;10.546;2023-11-19T04:49:49;1.40;;;1.00;;
54454;SDS011;40364;52.270;10.546;2023-11-19T04:52:16;3.15;;;1.27;;
54454;SDS011;40364;52.270;10.546;2023-11-19T04:54:43;2.72;;;1.33;;
54454;SDS011;40364;52.270;10.546;2023-11-19T04:57:10;3.42;;;1.48;;
54454;SDS011;40364;52.270;10.546;2023-11-19T04:59:37;2.72;;;1.42;;
54454;SDS011;40364;52.270;10.546;2023-11-19T05:02:05;3.00;;;1.50;;
54454;SDS011;40364;52.270;10.546;2023-11-19T05:04:32;2.97;;;1.65;;
54454;SDS011;40364;52.270;10.546;2023-11-19T05:06:58;4.47;;;1.25;;
54454;SDS011;40364;52.270;10.546;2023-11-19T05:09:25;2.90;;;2.22;;
54454;SDS011;40364;52.270;10.546;2023-11-19T05:11:51;4.30;;;1.77;;
54454;SDS011;40364;52.270;10.546;2023-11-19T05:14:18;1.67;;;1.50;;
54454;SDS011;40364;52.270;10.546;2023-11-19T05:16:46;4.35;;;2.13;;
54454;SDS011;40364;52.270;10.546;2023-11-19T05:19:14;3.00;;;1.65;;
54454;SDS011;40364;52.270;10.546;2023-11-19T05:21:41;2.88;;;1.70;;
54454;SDS011;40364;52.270;10.546;2023-11-19T05:24:08;3.92;;;1.83;;
54454;SDS011;40364;52.270;10.546;2023-11-19T05:26:35;2.25;;;1.50;;
54454;SDS011;40364;52.270;10.546;2023-11-19T05:29:01;3.38;;;1.83;;
54454;SDS011;40364;52.270;10.546;2023-11-19T05:31:28;4.35;;;2.00;;
54454;SDS011;40364;52.270;10.546;2023-11-19T05:33:54;2.70;;;1.50;;
54454;SDS011;40364;52.270;10.546;2023-11-19T05:36:22;2.83;;;1.55;;
54454;SDS011;40364;52.270;10.546;2023-11-19T05:38:49;2.30;;;1.40;;
54454;SDS011;40364;52.270;10.546;2023-11-19T05:41:16;2.35;;;1.60;;
54454;SDS011;40364;52.270;10.546;2023-11-19T05:43:42;2.60;;;1.60;;
54454;SDS011;40364;52.270;10.546;2023-11-19T05:46:09;3.75;;;1.58;;
54454;SDS011;40364;52.270;10.546;2023-11-19T05:48:35;3.10;;;1.17;;
54454;SDS011;40364;52.270;10.546;2023-11-19T05:51:03;2.42;;;1.50;;
54454;SDS011;40364;52.270;10.546;2023-11-19T05:53:32;4.35;;;1.10;;
54454;SDS011;40364;52.270;10.546;2023-11-19T05:55:59;3.05;;;1.30;;
54454;SDS011;40364;52.270;10.546;2023-11-19T05:58:29;1.92;;;1.33;;
54454;SDS011;40364;52.270;10.546;2023-11-19T06:00:57;3.13;;;1.25;;
54454;SDS011;40364;52.270;10.546;2023-11-19T06:03:25;2.42;;;1.20;;
54454;SDS011;40364;52.270;10.546;2023-11-19T06:05:52;3.08;;;1.40;;
54454;SDS011;40364;52.270;10.546;2023-11-19T06:08:20;3.08;;;1.30;;
54454;SDS011;40364;52.270;10.546;2023-11-19T06:10:48;6.28;;;1.88;;
54454;SDS011;40364;52.270;10.546;2023-11-19T06:13:16;3.40;;;1.67;;
54454;SDS011;40364;52.270;10.546;2023-11-19T06:15:43;3.25;;;1.80;;
54454;SDS011;40364;52.270;10.546;2023-11-19T06:18:09;3.25;;;1.52;;
54454;SDS011;40364;52.270;10.546;2023-11-19T06:20:37;5.72;;;1.60;;
54454;SDS011;40364;52.270;10.546;2023-11-19T06:23:04;2.17;;;1.70;;
54454;SDS011;40364;52.270;10.546;2023-11-19T06:25:31;2.08;;;1.55;;
54454;SDS011;40364;52.270;10.546;2023-11-19T06:28:01;3.13;;;1.52;;
54454;SDS011;40364;52.270;10.546;2023-11-19T06:30:28;3.55;;;2.22;;
54454;SDS011;40364;52.270;10.546;2023-11-19T06:32:56;4.22;;;1.88;;
54454;SDS011;40364;52.270;10.546;2023-11-19T06:35:22;5.22;;;1.80;;
54454;SDS011;40364;52.270;10.546;2023-11-19T06:37:49;5.18;;;2.55;;
54454;SDS011;40364;52.270;10.546;2023-11-19T06:40:16;4.53;;;2.03;;
54454;SDS011;40364;52.270;10.546;2023-11-19T06:42:42;7.40;;;2.08;;
54454;SDS011;40364;52.270;10.546;2023-11-19T06:45:10;4.60;;;2.33;;
54454;SDS011;40364;52.270;10.546;2023-11-19T06:47:39;3.38;;;2.38;;
54454;SDS011;40364;52.270;10.546;2023-11-19T06:50:06;10.05;;;2.10;;
54454;SDS011;40364;52.270;10.546;2023-11-19T06:52:34;5.07;;;2.20;;
54454;SDS011;40364;52.270;10.546;2023-11-19T06:55:03;7.05;;;2.00;;
54454;SDS011;40364;52.270;10.546;2023-11-19T06:57:31;5.72;;;2.60;;
54454;SDS011;40364;52.270;10.546;2023-11-19T06:59:57;6.30;;;2.10;;
54454;SDS011;40364;52.270;10.546;2023-11-19T07:02:26;3.55;;;2.30;;
54454;SDS011;40364;52.270;10.546;2023-11-19T07:04:52;5.78;;;1.83;;
54454;SDS011;40364;52.270;10.546;2023-11-19T07:07:19;6.65;;;2.40;;
54454;SDS011;40364;52.270;10.546;2023-11-19T07:09:46;9.98;;;2.38;;
54454;SDS011;40364;52.270;10.546;2023-11-19T07:12:13;8.68;;;2.70;;
54454;SDS011;40364;52.270;10.546;2023-11-19T07:14:39;6.78;;;2.88;;
54454;SDS011;40364;52.270;10.546;2023-11-19T07:17:06;6.65;;;2.75;;
54454;SDS011;40364;52.270;10.546;2023-11-19T07:19:35;10.40;;;3.05;;
54454;SDS011;40364;52.270;10.546;2023-11-19T07:22:03;8.23;;;2.72;;
54454;SDS011;40364;52.270;10.546;2023-11-19T07:24:31;7.15;;;2.38;;
54454;SDS011;40364;52.270;10.546;2023-11-19T07:26:58;7.72;;;2.20;;
54454;SDS011;40364;52.270;10.546;2023-11-19T07:29:24;6.22;;;2.15;;
54454;SDS011;40364;52.270;10.546;2023-11-19T07:31:51;5.53;;;2.47;;
54454;SDS011;40364;52.270;10.546;2023-11-19T07:34:17;7.72;;;2.13;;
54454;SDS011;40364;52.270;10.546;2023-11-19T07:36:46;7.50;;;2.45;;
54454;SDS011;40364;52.270;10.546;2023-11-19T07:39:12;3.55;;;2.15;;
54454;SDS011;40364;52.270;10.546;2023-11-19T07:41:39;3.10;;;1.77;;
54454;SDS011;40364;52.270;10.546;2023-11-19T07:44:05;7.55;;;2.92;;
54454;SDS011;40364;52.270;10.546;2023-11-19T07:46:32;7.70;;;2.28;;
54454;SDS011;40364;52.270;10.546;2023-11-19T07:48:59;9.20;;;3.08;;
54454;SDS011;40364;52.270;10.546;2023-11-19T07:51:27;15.05;;;2.95;;
54454;SDS011;40364;52.270;10.546;2023-11-19T07:53:55;12.10;;;2.58;;
54454;SDS011;40364;52.270;10.546;2023-11-19T07:56:22;9.48;;;2.63;;
54454;SDS011;40364;52.270;10.546;2023-11-19T07:58:49;12.52;;;2.65;;
54454;SDS011;40364;52.270;10.546;2023-11-19T08:01:15;9.73;;;2.88;;
54454;SDS011;40364;52.270;10.546;2023-11-19T08:03:42;8.93;;;3.28;;
54454;SDS011;40364;52.270;10.546;2023-11-19T08:06:09;8.80;;;3.03;;
54454;SDS011;40364;52.270;10.546;2023-11-19T08:08:35;8.07;;;3.22;;
54454;SDS011;40364;52.270;10.546;2023-11-19T08:11:05;8.00;;;3.33;;
54454;SDS011;40364;52.270;10.546;2023-11-19T08:13:32;22.95;;;3.63;;
54454;SDS011;40364;52.270;10.546;2023-11-19T08:15:58;11.85;;;3.15;;
54454;SDS011;40364;52.270;10.546;2023-11-19T08:18:25;12.30;;;3.70;;
54454;SDS011;40364;52.270;10.546;2023-11-19T08:20:52;10.75;;;3.10;;
54454;SDS011;40364;52.270;10.546;2023-11-19T08:23:19;15.80;;;4.00;;
54454;SDS011;40364;52.270;10.546;2023-11-19T08:25:46;23.17;;;4.53;;
54454;SDS011;40364;52.270;10.546;2023-11-19T08:28:19;13.98;;;4.15;;
54454;SDS011;40364;52.270;10.546;2023-11-19T08:30:46;15.40;;;3.65;;
54454;SDS011;40364;52.270;10.546;2023-11-19T08:33:13;13.02;;;3.80;;
54454;SDS011;40364;52.270;10.546;2023-11-19T08:35:42;24.10;;;3.90;;
54454;SDS011;40364;52.270;10.546;2023-11-19T08:38:09;12.43;;;3.83;;
54454;SDS011;40364;52.270;10.546;2023-11-19T08:40:36;22.42;;;4.43;;
54454;SDS011;40364;52.270;10.546;2023-11-19T08:43:04;22.95;;;3.60;;
54454;SDS011;40364;52.270;10.546;2023-11-19T08:45:33;11.45;;;3.30;;
54454;SDS011;40364;52.270;10.546;2023-11-19T08:48:01;13.85;;;3.75;;
54454;SDS011;40364;52.270;10.546;2023-11-19T08:50:30;13.77;;;3.75;;
54454;SDS011;40364;52.270;10.546;2023-11-19T08:52:57;10.90;;;3.72;;
54454;SDS011;40364;52.270;10.546;2023-11-19T08:55:24;20.65;;;4.50;;
54454;SDS011;40364;52.270;10.546;2023-11-19T08:57:51;17.58;;;3.42;;
54454;SDS011;40364;52.270;10.546;2023-11-19T09:00:18;19.52;;;4.00;;
54454;SDS011;40364;52.270;10.546;2023-11-19T09:02:49;22.75;;;2.97;;
54454;SDS011;40364;52.270;10.546;2023-11-19T09:05:16;17.55;;;3.30;;
54454;SDS011;40364;52.270;10.546;2023-11-19T09:07:47;14.50;;;3.35;;
54454;SDS011;40364;52.270;10.546;2023-11-19T09:10:15;15.65;;;3.15;;
54454;SDS011;40364;52.270;10.546;2023-11-19T09:12:50;20.90;;;4.50;;
54454;SDS011;40364;52.270;10.546;2023-11-19T09:15:22;23.20;;;3.63;;
54454;SDS011;40364;52.270;10.546;2023-11-19T09:17:50;17.15;;;3.60;;
54454;SDS011;40364;52.270;10.546;2023-11-19T09:20:26;19.73;;;3.47;;
54454;SDS011;40364;52.270;10.546;2023-11-19T09:22:57;13.23;;;2.85;;
54454;SDS011;40364;52.270;10.546;2023-11-19T09:25:31;14.20;;;3.33;;
54454;SDS011;40364;52.270;10.546;2023-11-19T09:28:04;25.98;;;4.03;;
54454;SDS011;40364;52.270;10.546;2023-11-19T09:30:35;18.27;;;3.25;;
54454;SDS011;40364;52.270;10.546;2023-11-19T09:33:04;15.43;;;4.35;;
54454;SDS011;40364;52.270;10.546;2023-11-19T09:35:36;27.80;;;3.78;;
54454;SDS011;40364;52.270;10.546;2023-11-19T09:38:12;17.50;;;3.05;;
54454;SDS011;40364;52.270;10.546;2023-11-19T09:40:49;17.88;;;3.65;;
54454;SDS011;40364;52.270;10.546;2023-11-19T09:43:40;22.40;;;3.45;;
54454;SDS011;40364;52.270;10.546;2023-11-19T09:46:20;22.17;;;3.85;;
54454;SDS011;40364;52.270;10.546;2023-11-19T09:48:58;17.08;;;2.95;;
54454;SDS011;40364;52.270;10.546;2023-11-19T09:51:30;21.33;;;3.47;;
54454;SDS011;40364;52.270;10.546;2023-11-19T09:53:59;24.88;;;4.45;;
54454;SDS011;40364;52.270;10.546;2023-11-19T09:56:28;20.73;;;3.40;;
54454;SDS011;40364;52.270;10.546;2023-11-19T09:58:58;9.82;;;2.60;;
54454;SDS011;40364;52.270;10.546;2023-11-19T10:01:27;24.50;;;3.47;;
54454;SDS011;40364;52.270;10.546;2023-11-19T10:04:00;19.05;;;3.42;;
54454;SDS011;40364;52.270;10.546;2023-11-19T10:06:34;20.63;;;3.28;;
54454;SDS011;40364;52.270;10.546;2023-11-19T10:09:06;15.98;;;2.90;;
54454;SDS011;40364;52.270;10.546;2023-11-19T10:11:33;20.98;;;3.35;;
54454;SDS011;40364;52.270;10.546;2023-11-19T10:14:01;25.85;;;3.55;;
54454;SDS011;40364;52.270;10.546;2023-11-19T10:16:31;26.77;;;3.90;;
54454;SDS011;40364;52.270;10.546;2023-11-19T10:19:04;23.13;;;3.45;;
54454;SDS011;40364;52.270;10.546;2023-11-19T10:21:32;15.98;;;3.88;;
54454;SDS011;40364;52.270;10.546;2023-11-19T10:23:59;20.33;;;3.25;;
54454;SDS011;40364;52.270;10.546;2023-11-19T10:26:26;18.10;;;3.03;;
54454;SDS011;40364;52.270;10.546;2023-11-19T10:28:54;16.20;;;2.95;;
54454;SDS011;40364;52.270;10.546;2023-11-19T10:31:21;17.40;;;3.08;;
54454;SDS011;40364;52.270;10.546;2023-11-19T10:33:51;20.05;;;3.40;;
54454;SDS011;40364;52.270;10.546;2023-11-19T10:36:20;16.15;;;2.70;;
54454;SDS011;40364;52.270;10.546;2023-11-19T10:38:52;21.50;;;3.65;;
54454;SDS011;40364;52.270;10.546;2023-11-19T10:41:28;19.85;;;2.92;;
54454;SDS011;40364;52.270;10.546;2023-11-19T10:43:56;20.42;;;3.03;;
54454;SDS011;40364;52.270;10.546;2023-11-19T10:46:23;17.17;;;3.13;;
54454;SDS011;40364;52.270;10.546;2023-11-19T10:49:08;13.40;;;3.13;;
54454;SDS011;40364;52.270;10.546;2023-11-19T10:51:38;21.27;;;3.10;;
54454;SDS011;40364;52.270;10.546;2023-11-19T10:54:11;21.30;;;3.45;;
54454;SDS011;40364;52.270;10.546;2023-11-19T10:56:44;16.90;;;2.95;;
54454;SDS011;40364;52.270;10.546;2023-11-19T10:59:15;22.35;;;3.53;;
54454;SDS011;40364;52.270;10.546;2023-11-19T11:01:45;22.65;;;3.67;;
54454;SDS011;40364;52.270;10.546;2023-11-19T11:04:19;11.45;;;2.15;;
54454;SDS011;40364;52.270;10.546;2023-11-19T11:06:51;12.82;;;2.60;;
54454;SDS011;40364;52.270;10.546;2023-11-19T11:09:20;17.83;;;2.60;;
54454;SDS011;40364;52.270;10.546;2023-11-19T11:11:48;12.65;;;2.63;;
54454;SDS011;40364;52.270;10.546;2023-11-19T11:14:18;16.63;;;2.53;;
54454;SDS011;40364;52.270;10.546;2023-11-19T11:16:47;13.38;;;1.95;;
54454;SDS011;40364;52.270;10.546;2023-11-19T11:19:16;20.42;;;3.83;;
54454;SDS011;40364;52.270;10.546;2023-11-19T11:21:44;14.15;;;2.50;;
54454;SDS011;40364;52.270;10.546;2023-11-19T11:24:32;9.55;;;2.22;;
54454;SDS011;40364;52.270;10.546;2023-11-19T11:30:18;17.55;;;3.28;;
54454;SDS011;40364;52.270;10.546;2023-11-19T11:32:58;18.35;;;2.88;;
54454;SDS011;40364;52.270;10.546;2023-11-19T11:35:34;11.68;;;2.45;;
54454;SDS011;40364;52.270;10.546;2023-11-19T11:38:11;12.43;;;2.33;;
54454;SDS011;40364;52.270;10.546;2023-11-19T11:40:42;16.75;;;2.95;;
54454;SDS011;40364;52.270;10.546;2023-11-19T11:46:15;16.13;;;2.75;;
54454;SDS011;40364;52.270;10.546;2023-11-19T11:49:27;17.30;;;3.20;;
54454;SDS011;40364;52.270;10.546;2023-11-19T11:51:58;19.85;;;3.10;;
54454;SDS011;40364;52.270;10.546;2023-11-19T11:54:28;17.27;;;3.33;;
54454;SDS011;40364;52.270;10.546;2023-11-19T11:59:48;19.15;;;4.22;;
54454;SDS011;40364;52.270;10.546;2023-11-19T12:02:15;16.25;;;2.88;;
54454;SDS011;40364;52.270;10.546;2023-11-19T12:04:43;15.50;;;4.20;;
54454;SDS011;40364;52.270;10.546;2023-11-19T12:07:17;21.17;;;2.90;;
54454;SDS011;40364;52.270;10.546;2023-11-19T12:09:48;18.35;;;3.15;;
54454;SDS011;40364;52.270;10.546;2023-11-19T12:12:20;13.52;;;2.47;;
54454;SDS011;40364;52.270;10.546;2023-11-19T12:15:01;16.73;;;3.13;;
54454;SDS011;40364;52.270;10.546;2023-11-19T12:17:37;12.27;;;2.97;;
54454;SDS011;40364;52.270;10.546;2023-11-19T12:20:09;17.02;;;3.63;;
54454;SDS011;40364;52.270;10.546;2023-11-19T12:22:37;18.13;;;3.35;;
54454;SDS011;40364;52.270;10.546;2023-11-19T12:25:04;23.23;;;3.67;;
54454;SDS011;40364;52.270;10.546;2023-11-19T12:27:33;16.48;;;3.10;;
54454;SDS011;40364;52.270;10.546;2023-11-19T12:30:00;19.10;;;3.08;;
54454;SDS011;40364;52.270;10.546;2023-11-19T12:32:36;22.33;;;2.70;;
54454;SDS011;40364;52.270;10.546;2023-11-19T12:35:04;15.05;;;2.50;;
54454;SDS011;40364;52.270;10.546;2023-11-19T12:37:31;17.60;;;3.92;;
54454;SDS011;40364;52.270;10.546;2023-11-19T12:39:58;23.67;;;3.20;;
54454;SDS011;40364;52.270;10.546;2023-11-19T12:42:36;18.40;;;2.83;;
54454;SDS011;40364;52.270;10.546;2023-11-19T12:45:04;19.15;;;3.00;;
54454;SDS011;40364;52.270;10.546;2023-11-19T12:47:31;21.52;;;3.10;;
54454;SDS011;40364;52.270;10.546;2023-11-19T12:49:58;13.30;;;2.83;;
54454;SDS011;40364;52.270;10.546;2023-11-19T12:52:25;18.20;;;2.72;;
54454;SDS011;40364;52.270;10.546;2023-11-19T12:54:52;19.73;;;2.92;;
54454;SDS011;40364;52.270;10.546;2023-11-19T12:57:19;19.20;;;3.85;;
54454;SDS011;40364;52.270;10.546;2023-11-19T12:59:57;15.20;;;2.83;;
54454;SDS011;40364;52.270;10.546;2023-11-19T13:02:23;25.67;;;4.30;;
54454;SDS011;40364;52.270;10.546;2023-11-19T13:05:22;14.50;;;2.83;;
54454;SDS011;40364;52.270;10.546;2023-11-19T13:08:03;23.92;;;3.58;;
54454;SDS011;40364;52.270;10.546;2023-11-19T13:10:31;13.75;;;2.53;;
54454;SDS011;40364;52.270;10.546;2023-11-19T13:13:04;15.50;;;2.60;;
54454;SDS011;40364;52.270;10.546;2023-11-19T13:15:33;21.23;;;3.10;;
54454;SDS011;40364;52.270;10.546;2023-11-19T13:18:02;18.83;;;3.42;;
54454;SDS011;40364;52.270;10.546;2023-11-19T13:20:29;22.23;;;2.95;;
54454;SDS011;40364;52.270;10.546;2023-11-19T13:22:57;14.23;;;3.28;;
54454;SDS011;40364;52.270;10.546;2023-11-19T13:25:24;18.10;;;3.00;;
54454;SDS011;40364;52.270;10.546;2023-11-19T13:27:50;21.65;;;3.90;;
54454;SDS011;40364;52.270;10.546;2023-11-19T13:30:17;18.25;;;3.00;;
54454;SDS011;40364;52.270;10.546;2023-11-19T13:32:46;20.08;;;3.25;;
54454;SDS011;40364;52.270;10.546;2023-11-19T13:35:15;25.80;;;4.25;;
54454;SDS011;40364;52.270;10.546;2023-11-19T13:37:43;16.75;;;2.60;;
54454;SDS011;40364;52.270;10.546;2023-11-19T13:40:10;22.23;;;4.05;;
54454;SDS011;40364;52.270;10.546;2023-11-19T13:42:39;23.17;;;3.92;;
54454;SDS011;40364;52.270;10.546;2023-11-19T13:45:07;25.38;;;2.85;;
54454;SDS011;40364;52.270;10.546;2023-11-19T13:47:36;22.33;;;3.33;;
54454;SDS011;40364;52.270;10.546;2023-11-19T13:50:08;22.38;;;3.13;;
54454;SDS011;40364;52.270;10.546;2023-11-19T13:52:35;13.77;;;2.97;;
54454;SDS011;40364;52.270;10.546;2023-11-19T13:55:03;19.17;;;2.38;;
54454;SDS011;40364;52.270;10.546;2023-11-19T13:57:31;14.98;;;2.88;;
54454;SDS011;40364;52.270;10.546;2023-11-19T13:59:59;18.60;;;2.83;;
54454;SDS011;40364;52.270;10.546;2023-11-19T14:02:26;16.40;;;3.35;;
54454;SDS011;40364;52.270;10.546;2023-11-19T14:04:52;22.02;;;3.30;;
54454;SDS011;40364;52.270;10.546;2023-11-19T14:07:21;13.48;;;2.92;;
54454;SDS011;40364;52.270;10.546;2023-11-19T14:09:47;21.23;;;3.47;;
54454;SDS011;40364;52.270;10.546;2023-11-19T14:12:15;17.88;;;3.35;;
54454;SDS011;40364;52.270;10.546;2023-11-19T14:14:42;15.80;;;3.17;;
54454;SDS011;40364;52.270;10.546;2023-11-19T14:17:09;23.40;;;3.10;;
54454;SDS011;40364;52.270;10.546;2023-11-19T14:19:36;19.52;;;2.60;;
54454;SDS011;40364;52.270;10.546;2023-11-19T14:22:03;12.90;;;2.88;;
54454;SDS011;40364;52.270;10.546;2023-11-19T14:24:31;16.42;;;3.13;;
54454;SDS011;40364;52.270;10.546;2023-11-19T14:26:58;14.45;;;3.10;;
54454;SDS011;40364;52.270;10.546;2023-11-19T14:29:26;27.05;;;4.95;;
54454;SDS011;40364;52.270;10.546;2023-11-19T14:31:53;13.90;;;3.50;;
54454;SDS011;40364;52.270;10.546;2023-11-19T14:34:20;21.27;;;3.70;;
54454;SDS011;40364;52.270;10.546;2023-11-19T14:36:47;16.45;;;3.35;;
54454;SDS011;40364;52.270;10.546;2023-11-19T14:39:14;15.85;;;3.28;;
54454;SDS011;40364;52.270;10.546;2023-11-19T14:41:43;22.77;;;4.13;;
54454;SDS011;40364;52.270;10.546;2023-11-19T14:44:10;17.85;;;3.67;;
54454;SDS011;40364;52.270;10.546;2023-11-19T14:46:37;19.42;;;4.15;;